Time;durP1;ratioP1;P1;durP2;ratioP2;P2;SDS_P1;SDS_P2;PMS_P1;PMS_P2;Temp;Humidity;BMP_temperature;BMP_pressure;BME280_temperature;BME280_humidity;BME280_pressure;Samples;Min_cycle;Max_cycle;Signal;HPM_P1;HPM_P2
2021/07/10 00:00:26;;;;;;;5.53;4.03;;;19.50;71.50;;;;;;5086554;28;27493;-56
2021/07/10 00:03:14;;;;;;;7.15;3.50;;;19.40;71.40;;;;;;5104531;28;27422;-57
2021/07/10 00:06:01;;;;;;;4.65;2.75;;;19.40;71.50;;;;;;5087995;28;27331;-55
2021/07/10 00:08:48;;;;;;;5.18;2.75;;;19.40;71.50;;;;;;5103683;28;27825;-57
2021/07/10 00:11:35;;;;;;;3.83;2.78;;;19.30;71.30;;;;;;5089360;28;27513;-58
2021/07/10 00:14:23;;;;;;;4.07;2.83;;;19.30;71.40;;;;;;5103978;28;27626;-56
2021/07/10 00:17:12;;;;;;;8.90;2.70;;;19.30;71.30;;;;;;5089694;28;27411;-57
2021/07/10 00:19:59;;;;;;;6.70;2.90;;;19.20;71.10;;;;;;5086369;28;27413;-57
2021/07/10 00:22:46;;;;;;;4.10;2.88;;;19.20;71.10;;;;;;5103505;28;27491;-56
2021/07/10 00:25:33;;;;;;;5.03;3.05;;;19.20;71.10;;;;;;5103674;28;27462;-57
2021/07/10 00:28:21;;;;;;;5.22;3.10;;;19.20;71.10;;;;;;5100389;28;27399;-56
2021/07/10 00:31:09;;;;;;;5.07;2.60;;;19.10;71.20;;;;;;5103603;28;27434;-57
2021/07/10 00:33:56;;;;;;;5.95;3.20;;;19.10;71.10;;;;;;5103066;28;27510;-56
2021/07/10 00:36:43;;;;;;;4.78;2.90;;;19.10;71.20;;;;;;5085760;28;27398;-57
2021/07/10 00:39:30;;;;;;;5.50;3.03;;;19.10;71.10;;;;;;5103422;28;27328;-57
2021/07/10 00:42:21;;;;;;;7.80;3.10;;;19.00;71.10;;;;;;5102319;28;27982;-58
2021/07/10 00:45:11;;;;;;;3.20;2.67;;;19.00;71.00;;;;;;5103916;28;27395;-54
2021/07/10 00:47:58;;;;;;;5.35;2.67;;;19.00;70.90;;;;;;5086086;28;27366;-57
2021/07/10 00:50:46;;;;;;;5.18;3.05;;;19.00;71.10;;;;;;5102820;27;27411;-56
2021/07/10 00:53:33;;;;;;;3.28;2.88;;;18.90;70.90;;;;;;5102954;28;27367;-58
2021/07/10 00:56:21;;;;;;;8.00;4.82;;;18.90;70.90;;;;;;5103924;28;27348;-56
2021/07/10 00:59:08;;;;;;;5.38;3.63;;;18.90;71.00;;;;;;5088951;28;27336;-55
2021/07/10 01:01:55;;;;;;;3.33;2.70;;;18.90;71.10;;;;;;5102528;28;27553;-56
2021/07/10 01:04:42;;;;;;;5.82;2.90;;;18.80;71.00;;;;;;5071502;28;27856;-55
2021/07/10 01:07:29;;;;;;;4.63;2.92;;;18.80;71.10;;;;;;5099513;28;27332;-57
2021/07/10 01:10:16;;;;;;;4.28;3.40;;;18.80;71.20;;;;;;5103576;28;27344;-55
2021/07/10 01:13:05;;;;;;;5.55;3.30;;;18.70;71.20;;;;;;5088970;28;27618;-56
2021/07/10 01:15:53;;;;;;;6.38;3.40;;;18.70;71.30;;;;;;5102707;28;27436;-57
2021/07/10 01:18:43;;;;;;;3.13;2.83;;;18.70;71.40;;;;;;5088551;28;27411;-57
2021/07/10 01:21:30;;;;;;;8.00;2.90;;;18.70;71.50;;;;;;5099578;28;27483;-56
2021/07/10 01:24:17;;;;;;;7.07;3.88;;;18.70;71.60;;;;;;5099536;28;27492;-57
2021/07/10 01:27:05;;;;;;;5.75;2.80;;;18.70;71.70;;;;;;5103366;28;27881;-57
2021/07/10 01:29:54;;;;;;;5.78;2.83;;;18.60;71.80;;;;;;5088729;28;27390;-59
2021/07/10 01:32:42;;;;;;;4.75;2.85;;;18.60;71.90;;;;;;5103709;28;27458;-58
2021/07/10 01:35:29;;;;;;;3.92;3.10;;;18.60;72.00;;;;;;5102707;28;27362;-57
2021/07/10 01:38:15;;;;;;;6.70;2.92;;;18.60;72.00;;;;;;5085303;28;27367;-61
2021/07/10 01:41:03;;;;;;;3.45;3.15;;;18.60;72.20;;;;;;5101642;28;27604;-57
2021/07/10 01:43:49;;;;;;;8.13;2.80;;;18.60;72.50;;;;;;5103090;28;27570;-58
2021/07/10 01:46:36;;;;;;;6.20;2.95;;;18.60;72.30;;;;;;5099019;28;27487;-58
2021/07/10 01:49:23;;;;;;;7.80;2.70;;;18.60;72.40;;;;;;5102588;28;27993;-57
2021/07/10 01:52:11;;;;;;;2.88;2.60;;;18.50;72.50;;;;;;5088556;28;27416;-57
2021/07/10 01:54:59;;;;;;;5.05;2.78;;;18.50;72.60;;;;;;5087649;28;27422;-57
2021/07/10 01:57:50;;;;;;;4.70;2.75;;;18.50;72.80;;;;;;5088027;28;27487;-58
2021/07/10 02:00:41;;;;;;;3.25;2.92;;;18.50;73.00;;;;;;5099016;28;27327;-57
2021/07/10 02:03:28;;;;;;;4.63;3.08;;;18.50;73.30;;;;;;5104803;28;27446;-57
2021/07/10 02:06:19;;;;;;;5.75;3.03;;;18.50;73.20;;;;;;5106059;28;27401;-62
2021/07/10 02:09:06;;;;;;;7.05;3.30;;;18.50;73.20;;;;;;5102687;28;27512;-58
2021/07/10 02:11:53;;;;;;;5.30;3.80;;;18.40;73.30;;;;;;5106715;28;27493;-56
2021/07/10 02:14:40;;;;;;;12.20;5.38;;;18.40;73.30;;;;;;5103377;28;27325;-57
2021/07/10 02:17:27;;;;;;;4.47;3.80;;;18.40;73.50;;;;;;5105609;28;27400;-58
2021/07/10 02:20:19;;;;;;;5.72;4.03;;;18.40;73.60;;;;;;5091615;28;27469;-57
2021/07/10 02:23:09;;;;;;;8.63;5.07;;;18.40;73.70;;;;;;5104665;28;27545;-58
2021/07/10 02:26:01;;;;;;;10.45;5.43;;;18.40;74.00;;;;;;5102438;28;27379;-57
2021/07/10 02:28:49;;;;;;;10.48;5.40;;;18.40;74.20;;;;;;5102961;28;27458;-58
2021/07/10 02:31:38;;;;;;;10.70;5.72;;;18.40;74.40;;;;;;5073740;28;27506;-58
2021/07/10 02:34:30;;;;;;;5.63;4.72;;;18.40;74.50;;;;;;5106211;28;27437;-58
2021/07/10 02:37:18;;;;;;;5.80;5.18;;;18.40;74.70;;;;;;5105918;28;27489;-58
2021/07/10 02:40:07;;;;;;;8.10;5.30;;;18.40;74.80;;;;;;5087971;28;27355;-58
2021/07/10 02:42:54;;;;;;;6.30;5.38;;;18.40;74.80;;;;;;5105032;28;27523;-56
2021/07/10 02:45:41;;;;;;;6.15;4.65;;;18.40;74.90;;;;;;5087854;28;27462;-58
2021/07/10 02:48:28;;;;;;;7.88;5.22;;;18.40;74.80;;;;;;5105195;28;27414;-58
2021/07/10 02:51:17;;;;;;;7.28;4.90;;;18.40;74.80;;;;;;5073501;28;26902;-59
2021/07/10 02:54:06;;;;;;;6.18;5.57;;;18.40;74.80;;;;;;5105838;28;27508;-58
2021/07/10 02:56:52;;;;;;;6.88;6.20;;;18.40;75.00;;;;;;5073306;28;27488;-57
2021/07/10 02:59:40;;;;;;;5.38;4.85;;;18.40;75.10;;;;;;5101726;28;27407;-58
2021/07/10 03:02:30;;;;;;;6.80;5.32;;;18.40;75.10;;;;;;5104845;28;27462;-59
2021/07/10 03:05:17;;;;;;;7.68;5.70;;;18.40;75.30;;;;;;5105553;28;27478;-60
2021/07/10 03:08:04;;;;;;;8.70;5.38;;;18.40;75.20;;;;;;5101617;28;27419;-58
2021/07/10 03:10:51;;;;;;;7.20;5.00;;;18.40;75.20;;;;;;5101360;28;27432;-60
2021/07/10 03:13:38;;;;;;;6.25;4.82;;;18.30;75.40;;;;;;5090512;28;27382;-59
2021/07/10 03:16:24;;;;;;;6.40;5.80;;;18.30;75.40;;;;;;5090358;28;27431;-60
2021/07/10 03:19:11;;;;;;;8.02;5.82;;;18.30;75.40;;;;;;5104831;28;27418;-59
2021/07/10 03:21:58;;;;;;;9.75;5.75;;;18.40;75.50;;;;;;5087097;28;27408;-60
2021/07/10 03:24:46;;;;;;;7.13;5.10;;;18.40;75.70;;;;;;5105608;28;27418;-59
2021/07/10 03:27:33;;;;;;;6.00;5.28;;;18.30;75.70;;;;;;5104457;28;27363;-59
2021/07/10 03:30:21;;;;;;;8.77;5.35;;;18.30;75.80;;;;;;5105415;28;27434;-60
2021/07/10 03:33:07;;;;;;;8.35;5.65;;;18.40;75.80;;;;;;5105396;28;27491;-61
2021/07/10 03:35:54;;;;;;;7.28;6.07;;;18.30;75.70;;;;;;5087342;28;27332;-59
2021/07/10 03:38:44;;;;;;;5.78;5.15;;;18.40;75.80;;;;;;5104550;28;27397;-60
2021/07/10 03:41:30;;;;;;;6.20;5.35;;;18.30;76.00;;;;;;5103897;28;27932;-60
2021/07/10 03:44:17;;;;;;;7.30;5.57;;;18.30;76.10;;;;;;5104452;28;27427;-59
2021/07/10 03:47:04;;;;;;;6.38;5.78;;;18.30;76.20;;;;;;5105089;28;27343;-59
2021/07/10 03:49:53;;;;;;;6.05;5.43;;;18.30;76.50;;;;;;5105164;28;27378;-60
2021/07/10 03:52:40;;;;;;;6.25;5.45;;;18.30;76.50;;;;;;5087025;28;27411;-59
2021/07/10 03:55:27;;;;;;;8.32;5.38;;;18.30;76.70;;;;;;5103959;28;27423;-58
2021/07/10 03:58:14;;;;;;;6.00;5.30;;;18.30;76.80;;;;;;5089908;28;27405;-59
2021/07/10 04:01:01;;;;;;;5.35;4.85;;;18.30;76.80;;;;;;5103900;28;27336;-58
2021/07/10 04:03:48;;;;;;;7.57;5.60;;;18.30;77.10;;;;;;5089628;28;27486;-59
2021/07/10 04:06:35;;;;;;;6.22;5.63;;;18.30;77.20;;;;;;5089425;28;27526;-59
2021/07/10 04:09:21;;;;;;;6.38;5.72;;;18.30;77.40;;;;;;5086271;28;27438;-59
2021/07/10 04:12:09;;;;;;;6.65;5.20;;;18.20;77.60;;;;;;5102802;28;27423;-58
2021/07/10 04:15:00;;;;;;;6.50;5.90;;;18.20;77.70;;;;;;5104316;28;27391;-59
2021/07/10 04:17:47;;;;;;;5.95;5.40;;;18.20;77.90;;;;;;5103738;28;27469;-60
2021/07/10 04:20:34;;;;;;;5.57;5.07;;;18.30;78.00;;;;;;5089787;28;27406;-59
2021/07/10 04:23:23;;;;;;;5.47;4.97;;;18.30;78.20;;;;;;5089329;28;27486;-59
2021/07/10 04:26:12;;;;;;;7.47;5.35;;;18.30;78.30;;;;;;5103249;27;27465;-59
2021/07/10 04:28:59;;;;;;;6.60;6.00;;;18.20;78.30;;;;;;5072055;28;27386;-59
2021/07/10 04:31:47;;;;;;;6.30;5.68;;;18.30;78.60;;;;;;5100967;28;27387;-59
2021/07/10 04:34:37;;;;;;;7.03;5.55;;;18.30;78.80;;;;;;5103661;28;27384;-60
2021/07/10 04:37:24;;;;;;;6.07;5.13;;;18.30;78.80;;;;;;5103742;28;27945;-59
2021/07/10 04:40:11;;;;;;;5.15;4.72;;;18.30;79.00;;;;;;5087709;28;27293;-59
2021/07/10 04:42:59;;;;;;;5.80;5.30;;;18.20;79.20;;;;;;5103268;28;27567;-60
2021/07/10 04:45:45;;;;;;;6.63;6.03;;;18.30;79.50;;;;;;5103542;28;27443;-59
2021/07/10 04:48:32;;;;;;;5.43;4.75;;;18.30;79.60;;;;;;5103316;28;27896;-59
2021/07/10 04:51:19;;;;;;;5.60;5.10;;;18.30;79.70;;;;;;5071938;28;27314;-60
2021/07/10 04:54:06;;;;;;;6.07;5.57;;;18.30;80.00;;;;;;5103348;28;27407;-60
2021/07/10 04:56:54;;;;;;;5.55;5.03;;;18.40;79.50;;;;;;5089213;28;27473;-58
2021/07/10 04:59:40;;;;;;;6.55;5.93;;;18.40;80.40;;;;;;5085491;28;27957;-59
2021/07/10 05:02:27;;;;;;;5.32;4.82;;;18.40;80.40;;;;;;5102898;28;27505;-59
2021/07/10 05:05:14;;;;;;;5.85;5.28;;;18.40;80.60;;;;;;5103157;28;27429;-59
2021/07/10 05:08:02;;;;;;;5.63;5.13;;;18.40;80.70;;;;;;5102635;28;27331;-58
2021/07/10 05:10:49;;;;;;;6.63;6.00;;;18.40;81.00;;;;;;5103106;28;27880;-60
2021/07/10 05:13:36;;;;;;;6.13;5.50;;;18.40;81.10;;;;;;5085520;28;27462;-59
2021/07/10 05:16:22;;;;;;;6.60;6.03;;;18.40;80.00;;;;;;5103904;28;27411;-59
2021/07/10 05:19:09;;;;;;;6.35;5.75;;;18.40;79.90;;;;;;5102740;28;27474;-60
2021/07/10 05:22:04;;;;;;;6.95;6.35;;;18.40;80.20;;;;;;5102191;28;28458;-59
2021/07/10 05:24:51;;;;;;;7.13;5.95;;;18.50;80.70;;;;;;5103342;28;27406;-59
2021/07/10 05:27:39;;;;;;;6.95;6.32;;;18.50;79.70;;;;;;5102728;28;27352;-60
2021/07/10 05:30:26;;;;;;;7.40;6.70;;;18.50;78.70;;;;;;5103584;28;27400;-59
2021/07/10 05:33:14;;;;;;;7.57;6.88;;;18.60;79.20;;;;;;5102555;28;27528;-58
2021/07/10 05:36:01;;;;;;;8.30;7.20;;;18.60;79.30;;;;;;5099510;27;27332;-59
2021/07/10 05:38:55;;;;;;;6.97;6.35;;;18.70;78.70;;;;;;5102793;28;27307;-60
2021/07/10 05:41:42;;;;;;;6.75;6.15;;;18.70;79.60;;;;;;5088685;28;27335;-59
2021/07/10 05:44:30;;;;;;;6.43;5.90;;;18.70;79.50;;;;;;5090921;28;27954;-59
2021/07/10 05:47:24;;;;;;;8.45;5.78;;;18.70;80.40;;;;;;5105323;28;27502;-60
2021/07/10 05:50:11;;;;;;;5.95;5.35;;;18.70;80.70;;;;;;5074626;28;27501;-60
2021/07/10 05:52:58;;;;;;;16.45;5.13;;;18.80;80.60;;;;;;5091075;28;27474;-59
2021/07/10 05:55:46;;;;;;;5.40;4.88;;;18.80;80.40;;;;;;5087694;28;27411;-59
2021/07/10 05:58:33;;;;;;;5.43;4.93;;;18.80;80.30;;;;;;5105906;28;27379;-59
2021/07/10 06:01:21;;;;;;;5.80;5.22;;;18.90;81.30;;;;;;5091052;28;27442;-60
2021/07/10 06:04:09;;;;;;;5.45;4.95;;;18.90;81.40;;;;;;5101592;28;27426;-59
2021/07/10 06:06:58;;;;;;;5.35;4.85;;;19.00;82.60;;;;;;5104845;28;27335;-59
2021/07/10 06:09:45;;;;;;;5.05;4.63;;;19.10;83.10;;;;;;5101622;28;27468;-61
2021/07/10 06:12:34;;;;;;;10.85;5.00;;;19.10;83.70;;;;;;5104990;28;27431;-60
2021/07/10 06:15:22;;;;;;;5.30;4.88;;;19.20;83.60;;;;;;5104641;28;27398;-60
2021/07/10 06:18:12;;;;;;;5.07;4.68;;;19.20;83.00;;;;;;5101972;28;27418;-62
2021/07/10 06:21:01;;;;;;;7.85;5.00;;;19.30;82.60;;;;;;5104849;28;27340;-58
2021/07/10 06:23:53;;;;;;;5.28;4.63;;;19.40;82.30;;;;;;5104959;28;27366;-59
2021/07/10 06:26:42;;;;;;;4.60;4.20;;;19.50;82.40;;;;;;5104761;28;27345;-59
2021/07/10 06:29:30;;;;;;;4.85;4.45;;;19.50;82.10;;;;;;5090309;28;27342;-59
2021/07/10 06:32:18;;;;;;;7.88;5.00;;;19.50;81.90;;;;;;5086968;28;27446;-58
2021/07/10 06:35:07;;;;;;;4.95;4.45;;;19.60;81.90;;;;;;5105167;28;27370;-59
2021/07/10 06:38:07;;;;;;;5.68;5.18;;;19.60;82.20;;;;;;5090034;28;27422;-58
2021/07/10 06:40:58;;;;;;;5.47;4.90;;;19.60;82.60;;;;;;5090895;28;27368;-59
2021/07/10 06:43:49;;;;;;;5.60;5.10;;;19.70;82.80;;;;;;5203068;27;27720;-58
2021/07/10 06:46:36;;;;;;;6.30;5.70;;;19.70;82.70;;;;;;5185863;27;27515;-61
2021/07/10 06:49:26;;;;;;;5.82;5.32;;;19.80;83.10;;;;;;5205693;27;27421;-60
2021/07/10 06:52:15;;;;;;;5.93;5.43;;;19.80;83.50;;;;;;5205889;27;27318;-59
2021/07/10 06:55:03;;;;;;;6.65;6.05;;;19.90;83.80;;;;;;5201643;27;27421;-59
2021/07/10 06:58:05;;;;;;;7.25;6.13;;;20.00;83.50;;;;;;5172101;27;27443;-59
2021/07/10 07:00:53;;;;;;;6.47;5.88;;;20.20;83.40;;;;;;5205069;27;27425;-59
2021/07/10 07:03:40;;;;;;;6.55;5.88;;;20.30;83.50;;;;;;5204944;27;27458;-59
2021/07/10 07:06:27;;;;;;;5.32;4.82;;;20.50;83.50;;;;;;5204614;27;27449;-60
2021/07/10 07:09:16;;;;;;;6.18;5.68;;;20.60;83.60;;;;;;5190269;27;27383;-60
2021/07/10 07:12:05;;;;;;;6.03;5.50;;;20.80;83.80;;;;;;5204258;27;27463;-59
2021/07/10 07:14:52;;;;;;;5.93;5.40;;;20.90;83.30;;;;;;5205303;27;27301;-59
2021/07/10 07:17:39;;;;;;;6.53;5.53;;;21.10;82.40;;;;;;5205277;27;27458;-60
2021/07/10 07:20:29;;;;;;;7.35;5.95;;;21.30;81.60;;;;;;5205536;27;27441;-62
2021/07/10 07:23:19;;;;;;;5.32;4.82;;;21.60;81.20;;;;;;5190391;27;27395;-61
2021/07/10 07:26:14;;;;;;;6.57;5.38;;;21.80;79.80;;;;;;5201350;27;27399;-61
2021/07/10 07:29:06;;;;;;;6.57;4.90;;;22.10;79.20;;;;;;5205190;27;27858;-60
2021/07/10 07:31:54;;;;;;;5.00;4.47;;;22.40;78.40;;;;;;5205128;27;27505;-61
2021/07/10 07:34:42;;;;;;;5.10;4.70;;;22.60;78.20;;;;;;5189855;27;27460;-60
2021/07/10 07:37:30;;;;;;;5.25;4.60;;;22.80;77.60;;;;;;5205104;27;27472;-60
2021/07/10 07:40:17;;;;;;;4.57;4.18;;;23.00;77.00;;;;;;5203960;27;27377;-61
2021/07/10 07:43:04;;;;;;;7.13;4.63;;;23.20;76.80;;;;;;5203856;27;27425;-61
2021/07/10 07:45:57;;;;;;;5.00;4.50;;;23.40;76.00;;;;;;5204386;27;27472;-61
2021/07/10 07:48:44;;;;;;;4.68;4.28;;;23.70;75.50;;;;;;5204055;27;27385;-61
2021/07/10 07:51:32;;;;;;;4.35;3.97;;;23.90;74.80;;;;;;5201507;27;27452;-61
2021/07/10 07:54:21;;;;;;;4.40;3.80;;;24.00;74.20;;;;;;5194243;27;27414;-60
2021/07/10 07:57:09;;;;;;;4.35;3.95;;;24.20;74.40;;;;;;5187428;27;27401;-62
2021/07/10 07:59:57;;;;;;;6.13;4.15;;;24.30;73.90;;;;;;5172016;27;27388;-63
2021/07/10 08:02:45;;;;;;;5.07;4.65;;;24.50;73.40;;;;;;5190141;27;27401;-64
2021/07/10 08:05:33;;;;;;;6.00;4.50;;;24.60;73.20;;;;;;5187210;27;27415;-60
2021/07/10 08:08:22;;;;;;;5.35;4.05;;;24.80;72.40;;;;;;5189964;27;27326;-61
2021/07/10 08:11:09;;;;;;;3.85;3.53;;;24.90;72.50;;;;;;5190619;27;27448;-61
2021/07/10 08:13:57;;;;;;;4.13;3.70;;;25.10;72.10;;;;;;5189618;27;27403;-61
2021/07/10 08:16:44;;;;;;;5.22;3.40;;;25.30;72.10;;;;;;5187092;27;27421;-60
2021/07/10 08:19:32;;;;;;;6.63;3.70;;;25.40;71.50;;;;;;5190525;27;27455;-62
2021/07/10 08:22:23;;;;;;;3.08;2.85;;;25.50;70.30;;;;;;5186967;27;27396;-62
2021/07/10 08:25:10;;;;;;;4.18;3.75;;;25.60;71.90;;;;;;5174727;27;27978;-62
2021/07/10 08:27:58;;;;;;;4.05;3.60;;;25.70;72.00;;;;;;5189237;27;27548;-62
2021/07/10 08:30:47;;;;;;;3.63;3.33;;;25.90;71.90;;;;;;5190050;27;27474;-61
2021/07/10 08:33:35;;;;;;;4.97;3.38;;;26.10;71.80;;;;;;5187149;27;27644;-62
2021/07/10 08:36:22;;;;;;;4.68;3.58;;;26.20;72.40;;;;;;5189055;27;27890;-61
2021/07/10 08:39:10;;;;;;;4.85;2.83;;;26.40;72.00;;;;;;5189279;27;27417;-61
2021/07/10 08:42:00;;;;;;;4.72;3.03;;;26.50;72.30;;;;;;5188291;27;27668;-61
2021/07/10 08:44:52;;;;;;;4.00;3.60;;;26.60;73.80;;;;;;5185930;27;27420;-61
2021/07/10 08:47:42;;;;;;;3.35;3.05;;;26.60;70.70;;;;;;5185433;27;27364;-61
2021/07/10 08:50:28;;;;;;;7.20;2.83;;;26.70;71.90;;;;;;5188814;27;27459;-62
2021/07/10 08:53:20;;;;;;;4.28;3.05;;;26.80;71.40;;;;;;5189662;27;27467;-61
2021/07/10 08:56:11;;;;;;;3.50;3.20;;;26.90;71.60;;;;;;5189561;27;27435;-61
2021/07/10 08:59:08;;;;;;;2.47;2.28;;;27.00;71.80;;;;;;5188949;27;27999;-60
2021/07/10 09:02:01;;;;;;;2.65;2.22;;;27.10;71.50;;;;;;5174172;27;27365;-61
2021/07/10 09:04:51;;;;;;;2.35;2.00;;;27.20;70.70;;;;;;5173894;27;27368;-61
2021/07/10 09:08:26;;;;;;;3.17;2.10;;;27.40;69.30;;;;;;5185440;27;26896;-61
2021/07/10 09:11:22;;;;;;;4.20;2.30;;;27.50;69.40;;;;;;5188477;27;27353;-63
2021/07/10 09:14:32;;;;;;;2.17;1.98;;;27.70;67.90;;;;;;5174204;27;27537;-62
2021/07/10 09:17:28;;;;;;;2.88;2.40;;;27.90;67.60;;;;;;5189241;27;27473;-63
2021/07/10 09:20:35;;;;;;;2.40;2.10;;;27.90;52.70;;;;;;5185983;27;27404;-61
2021/07/10 09:23:31;;;;;;;3.08;2.05;;;28.00;54.50;;;;;;5187991;27;27451;-61
2021/07/10 09:26:25;;;;;;;4.28;2.78;;;28.10;57.70;;;;;;5188253;27;27459;-61
2021/07/10 09:29:35;;;;;;;3.40;2.72;;;28.20;60.10;;;;;;5189054;27;27472;-61
2021/07/10 09:32:29;;;;;;;3.30;2.40;;;28.30;63.00;;;;;;5188199;27;27389;-62
2021/07/10 09:35:28;;;;;;;2.50;2.30;;;28.50;62.70;;;;;;5184696;27;27501;-62
2021/07/10 09:38:26;;;;;;;3.45;2.35;;;28.60;65.70;;;;;;5188337;27;27411;-62
2021/07/10 09:41:16;;;;;;;3.63;2.20;;;28.70;63.90;;;;;;5188099;27;27463;-61
2021/07/10 09:44:14;;;;;;;3.28;2.40;;;28.90;65.00;;;;;;5170649;27;27407;-62
2021/07/10 09:47:14;;;;;;;2.75;2.30;;;29.00;63.60;;;;;;5160571;27;27435;-62
2021/07/10 09:50:12;;;;;;;3.17;2.20;;;29.20;63.60;;;;;;5188215;27;27352;-61
2021/07/10 09:53:05;;;;;;;3.58;2.30;;;29.30;65.30;;;;;;5187806;27;27406;-61
2021/07/10 09:56:10;;;;;;;3.00;2.20;;;29.40;66.60;;;;;;5184754;27;27349;-61
2021/07/10 09:59:24;;;;;;;2.55;2.03;;;29.50;65.60;;;;;;5158641;27;27514;-61
2021/07/10 10:02:19;;;;;;;3.20;2.33;;;29.60;67.00;;;;;;5188548;27;27533;-62
2021/07/10 10:05:22;;;;;;;2.45;1.88;;;29.70;65.20;;;;;;5188464;27;27358;-61
2021/07/10 10:08:13;;;;;;;2.33;2.03;;;29.90;66.30;;;;;;5187603;27;27484;-61
2021/07/10 10:11:06;;;;;;;2.83;2.47;;;30.00;68.70;;;;;;5188511;27;27846;-62
2021/07/10 10:14:21;;;;;;;6.03;2.30;;;30.10;64.70;;;;;;5184387;27;27368;-62
2021/07/10 10:17:10;;;;;;;3.17;1.83;;;30.00;51.40;;;;;;5169617;27;27417;-61
2021/07/10 10:19:57;;;;;;;3.72;2.22;;;29.70;52.70;;;;;;5158821;27;27647;-62
2021/07/10 10:22:44;;;;;;;2.17;2.00;;;29.60;56.70;;;;;;5187976;27;27462;-63
2021/07/10 10:25:33;;;;;;;5.63;1.65;;;29.50;59.60;;;;;;5187689;27;27421;-62
2021/07/10 10:28:22;;;;;;;3.58;2.10;;;29.40;61.90;;;;;;5173116;27;27391;-62
2021/07/10 10:31:15;;;;;;;2.35;1.80;;;29.40;64.20;;;;;;5188284;27;27409;-61
2021/07/10 10:34:06;;;;;;;3.08;2.35;;;29.50;64.80;;;;;;5187240;27;27477;-61
2021/07/10 10:36:58;;;;;;;2.20;1.88;;;29.60;66.10;;;;;;5187204;27;27516;-62
2021/07/10 10:39:54;;;;;;;2.30;2.03;;;29.70;64.60;;;;;;5169738;27;27486;-61
2021/07/10 10:42:49;;;;;;;4.38;2.08;;;29.80;65.40;;;;;;5184658;27;27933;-61
2021/07/10 10:45:41;;;;;;;2.53;2.10;;;29.70;66.60;;;;;;5144110;27;27953;-60
2021/07/10 10:48:44;;;;;;;2.17;1.98;;;29.50;65.50;;;;;;5188172;27;27510;-61
2021/07/10 10:51:35;;;;;;;2.75;2.15;;;29.20;65.10;;;;;;5186604;27;27575;-60
2021/07/10 10:54:25;;;;;;;2.33;2.08;;;29.00;64.00;;;;;;5187694;27;27376;-60
2021/07/10 10:57:13;;;;;;;2.67;2.42;;;29.00;67.10;;;;;;5169137;27;27401;-60
2021/07/10 11:00:01;;;;;;;2.50;2.30;;;29.00;69.50;;;;;;5183450;27;27556;-61
2021/07/10 11:02:55;;;;;;;2.70;2.50;;;28.80;67.80;;;;;;5172460;27;27359;-63
2021/07/10 11:05:51;;;;;;;2.35;2.15;;;28.50;69.00;;;;;;5183510;27;27363;-60
2021/07/10 11:09:04;;;;;;;2.80;2.33;;;28.50;69.50;;;;;;5183178;27;27816;-61
2021/07/10 11:11:58;;;;;;;2.72;2.25;;;28.50;68.90;;;;;;5183644;27;27429;-61
2021/07/10 11:14:45;;;;;;;3.03;2.45;;;28.50;69.00;;;;;;5187064;27;27429;-64
2021/07/10 11:17:39;;;;;;;2.88;2.47;;;28.60;68.60;;;;;;5187713;27;27301;-62
2021/07/10 11:20:53;;;;;;;2.35;2.17;;;28.70;69.30;;;;;;5171845;27;27495;-63
2021/07/10 11:23:46;;;;;;;3.72;2.17;;;28.70;65.90;;;;;;5186542;27;27515;-61
2021/07/10 11:27:07;;;;;;;2.47;2.20;;;28.70;69.80;;;;;;5186587;27;27395;-61
2021/07/10 11:30:20;;;;;;;2.80;2.50;;;28.80;72.60;;;;;;5189474;27;27406;-61
2021/07/10 11:33:15;;;;;;;2.35;2.15;;;29.00;74.60;;;;;;5191385;27;27611;-61
2021/07/10 11:36:29;;;;;;;3.03;2.42;;;29.10;72.50;;;;;;5175746;27;27347;-61
2021/07/10 11:40:05;;;;;;;2.63;2.22;;;28.90;66.40;;;;;;5159588;27;27416;-60
2021/07/10 11:43:12;;;;;;;2.13;1.95;;;28.60;69.20;;;;;;5189612;27;27479;-62
2021/07/10 11:46:08;;;;;;;2.60;2.40;;;28.50;70.50;;;;;;5190078;27;27383;-62
2021/07/10 11:48:57;;;;;;;3.28;2.42;;;28.40;71.00;;;;;;5190359;27;27334;-60
2021/07/10 11:51:54;;;;;;;2.63;2.42;;;28.30;71.10;;;;;;5190056;27;27569;-61
2021/07/10 11:54:58;;;;;;;2.45;2.25;;;28.30;73.80;;;;;;5190385;27;27410;-61
2021/07/10 11:57:48;;;;;;;3.10;2.80;;;28.30;75.10;;;;;;5172005;27;27855;-60
2021/07/10 12:00:43;;;;;;;2.97;2.65;;;28.30;73.90;;;;;;5190720;27;27331;-62
2021/07/10 12:03:55;;;;;;;2.60;2.40;;;28.30;75.50;;;;;;5189472;27;27472;-66
2021/07/10 12:06:49;;;;;;;4.53;2.60;;;28.50;71.90;;;;;;5187374;27;27368;-60
2021/07/10 12:10:00;;;;;;;4.10;3.05;;;28.60;73.60;;;;;;5161134;27;27438;-61
2021/07/10 12:12:57;;;;;;;2.95;2.75;;;28.60;75.60;;;;;;5157787;27;27437;-62
2021/07/10 12:15:59;;;;;;;2.95;2.75;;;28.40;74.40;;;;;;5189610;27;27455;-61
2021/07/10 12:19:10;;;;;;;4.65;2.97;;;28.30;73.90;;;;;;5190627;27;27309;-60
2021/07/10 12:22:15;;;;;;;2.92;2.63;;;28.10;74.20;;;;;;5189228;27;27377;-60
2021/07/10 12:25:13;;;;;;;3.90;2.95;;;28.00;75.30;;;;;;5175912;27;27338;-60
2021/07/10 12:28:04;;;;;;;7.32;2.95;;;27.90;74.80;;;;;;5189284;27;27361;-60
2021/07/10 12:30:56;;;;;;;3.65;2.40;;;27.90;73.40;;;;;;5189986;27;27412;-60
2021/07/10 12:34:18;;;;;;;2.80;2.60;;;27.80;70.90;;;;;;5189476;27;27419;-61
2021/07/10 12:37:12;;;;;;;5.20;2.78;;;27.80;75.40;;;;;;5175188;27;27433;-60
2021/07/10 12:40:14;;;;;;;4.40;3.80;;;27.70;74.60;;;;;;5175994;27;27372;-60
2021/07/10 12:43:13;;;;;;;3.08;2.80;;;27.60;77.60;;;;;;5186903;27;27490;-60
2021/07/10 12:46:03;;;;;;;3.55;2.80;;;27.60;75.20;;;;;;5166727;27;27416;-60
2021/07/10 12:48:50;;;;;;;2.50;2.30;;;27.50;70.70;;;;;;5137044;27;27472;-61
2021/07/10 12:51:43;;;;;;;4.60;2.55;;;27.50;73.60;;;;;;5167121;27;27560;-60
2021/07/10 12:54:55;;;;;;;2.67;2.47;;;27.50;75.80;;;;;;5166673;27;27509;-61
2021/07/10 12:58:00;;;;;;;3.28;2.95;;;27.70;78.80;;;;;;5148648;27;27555;-60
2021/07/10 13:01:25;;;;;;;3.25;2.75;;;27.90;81.00;;;;;;5149039;27;27685;-63
2021/07/10 13:04:37;;;;;;;4.93;2.85;;;28.10;80.70;;;;;;5148532;27;27445;-60
2021/07/10 13:07:40;;;;;;;3.50;2.70;;;28.30;79.00;;;;;;5166751;27;27387;-59
2021/07/10 13:11:06;;;;;;;3.83;2.63;;;28.40;74.60;;;;;;5136779;27;27868;-61
2021/07/10 13:14:31;;;;;;;3.97;2.58;;;28.50;67.70;;;;;;5153684;27;27517;-60
2021/07/10 13:17:30;;;;;;;4.50;2.38;;;28.50;71.80;;;;;;5166485;27;27424;-60
2021/07/10 13:20:33;;;;;;;2.75;2.17;;;28.40;72.30;;;;;;5163021;27;27664;-60
2021/07/10 13:23:43;;;;;;;2.45;2.25;;;28.30;71.70;;;;;;5120698;27;27391;-61
2021/07/10 13:30:39;;;;;;;5.07;2.10;;;28.10;66.40;;;;;;5188312;27;27395;-61
2021/07/10 13:33:33;;;;;;;3.38;3.08;;;28.00;74.20;;;;;;5188899;27;27387;-60
2021/07/10 13:36:39;;;;;;;4.97;3.30;;;27.90;73.00;;;;;;5188765;27;27401;-59
2021/07/10 13:39:40;;;;;;;2.60;2.40;;;27.80;71.60;;;;;;5188177;27;27436;-60
2021/07/10 13:42:31;;;;;;;3.60;2.55;;;27.70;69.80;;;;;;5189033;27;27360;-60
2021/07/10 13:45:26;;;;;;;2.45;2.20;;;27.70;72.20;;;;;;5188327;27;27563;-60
2021/07/10 13:48:27;;;;;;;2.63;2.42;;;27.70;72.40;;;;;;5169996;27;27863;-60
2021/07/10 13:51:32;;;;;;;3.30;2.42;;;27.60;72.60;;;;;;5174223;27;27338;-60
2021/07/10 13:54:46;;;;;;;2.40;2.10;;;27.60;73.30;;;;;;5174016;27;27392;-59
2021/07/10 13:57:58;;;;;;;2.63;2.35;;;27.70;75.00;;;;;;5188275;27;27479;-61
2021/07/10 14:01:11;;;;;;;2.00;1.90;;;27.70;74.70;;;;;;5170256;27;27456;-61
2021/07/10 14:04:16;;;;;;;2.45;2.25;;;27.70;75.90;;;;;;5187929;27;27413;-60
2021/07/10 14:07:16;;;;;;;2.58;1.90;;;27.70;72.60;;;;;;5188673;27;27463;-59
2021/07/10 14:10:25;;;;;;;3.17;2.10;;;27.70;72.40;;;;;;5158907;27;27348;-60
2021/07/10 14:13:32;;;;;;;3.50;2.40;;;27.80;74.00;;;;;;5188210;27;27387;-60
2021/07/10 14:16:53;;;;;;;2.72;2.15;;;27.90;76.60;;;;;;5188536;27;27375;-60
2021/07/10 14:19:51;;;;;;;2.33;2.10;;;28.00;77.70;;;;;;5188531;27;27302;-60
2021/07/10 14:22:44;;;;;;;2.15;1.92;;;28.10;74.20;;;;;;5184611;27;27515;-60
2021/07/10 14:25:43;;;;;;;2.13;1.92;;;28.20;75.50;;;;;;5188046;27;27368;-60
2021/07/10 14:28:43;;;;;;;1.90;1.80;;;28.20;71.80;;;;;;5170911;27;27471;-60
2021/07/10 14:31:35;;;;;;;2.83;1.98;;;28.30;74.30;;;;;;5188082;27;27295;-61
2021/07/10 14:34:29;;;;;;;3.53;1.77;;;28.30;74.20;;;;;;5188339;27;27416;-60
2021/07/10 14:37:29;;;;;;;2.95;1.58;;;28.40;75.10;;;;;;5183764;27;27343;-60
2021/07/10 14:40:27;;;;;;;2.20;2.00;;;28.40;71.10;;;;;;5187108;27;27318;-61
2021/07/10 14:43:37;;;;;;;1.75;1.60;;;28.40;67.80;;;;;;5184536;27;27623;-60
2021/07/10 14:46:28;;;;;;;1.65;1.55;;;28.40;66.80;;;;;;5188127;27;27311;-60
2021/07/10 14:49:16;;;;;;;3.95;1.70;;;28.30;65.40;;;;;;5169451;27;27487;-59
2021/07/10 14:52:04;;;;;;;1.83;1.65;;;28.20;67.80;;;;;;5187280;27;27307;-61
2021/07/10 14:54:52;;;;;;;2.10;1.80;;;28.10;64.30;;;;;;5188069;27;27384;-61
2021/07/10 14:57:53;;;;;;;1.92;1.83;;;28.00;68.80;;;;;;5187210;27;27453;-60
2021/07/10 15:00:56;;;;;;;4.35;2.22;;;28.00;68.80;;;;;;5187582;27;27323;-59